sensor_id;sensor_type;location;lat;lon;timestamp;P1;durP1;ratioP1;P2;durP2;ratioP2
39656;SDS011;25337;51.478;7.510;2022-09-09T00:09:40;4.95;;;1.73;;
39656;SDS011;25337;51.478;7.510;2022-09-09T00:12:18;5.65;;;1.90;;
39656;SDS011;25337;51.478;7.510;2022-09-09T00:15:02;6.97;;;1.85;;
39656;SDS011;25337;51.478;7.510;2022-09-09T00:17:38;6.63;;;1.70;;
39656;SDS011;25337;51.478;7.510;2022-09-09T00:20:39;7.28;;;2.25;;
39656;SDS011;25337;51.478;7.510;2022-09-09T00:23:28;5.60;;;1.77;;
39656;SDS011;25337;51.478;7.510;2022-09-09T00:26:13;6.17;;;2.10;;
39656;SDS011;25337;51.478;7.510;2022-09-09T00:28:52;7.00;;;2.15;;
39656;SDS011;25337;51.478;7.510;2022-09-09T00:31:28;5.40;;;2.00;;
39656;SDS011;25337;51.478;7.510;2022-09-09T00:33:58;6.53;;;1.90;;
39656;SDS011;25337;51.478;7.510;2022-09-09T00:36:29;6.68;;;2.00;;
39656;SDS011;25337;51.478;7.510;2022-09-09T00:39:00;6.20;;;2.10;;
39656;SDS011;25337;51.478;7.510;2022-09-09T01:05:27;6.85;;;2.60;;
39656;SDS011;25337;51.478;7.510;2022-09-09T01:07:59;12.55;;;2.80;;
39656;SDS011;25337;51.478;7.510;2022-09-09T01:13:11;9.77;;;3.17;;
39656;SDS011;25337;51.478;7.510;2022-09-09T01:15:43;13.68;;;3.47;;
39656;SDS011;25337;51.478;7.510;2022-09-09T01:18:12;10.23;;;3.28;;
39656;SDS011;25337;51.478;7.510;2022-09-09T01:21:17;9.13;;;3.33;;
39656;SDS011;25337;51.478;7.510;2022-09-09T01:26:21;11.10;;;3.30;;
39656;SDS011;25337;51.478;7.510;2022-09-09T01:29:12;9.65;;;3.55;;
39656;SDS011;25337;51.478;7.510;2022-09-09T01:31:40;12.23;;;3.60;;
39656;SDS011;25337;51.478;7.510;2022-09-09T01:34:16;8.45;;;3.10;;
39656;SDS011;25337;51.478;7.510;2022-09-09T01:36:58;10.55;;;2.88;;
39656;SDS011;25337;51.478;7.510;2022-09-09T01:39:30;9.13;;;2.80;;
39656;SDS011;25337;51.478;7.510;2022-09-09T01:41:58;8.77;;;2.65;;
39656;SDS011;25337;51.478;7.510;2022-09-09T01:44:24;8.23;;;2.70;;
39656;SDS011;25337;51.478;7.510;2022-09-09T01:46:52;9.98;;;3.13;;
39656;SDS011;25337;51.478;7.510;2022-09-09T01:49:17;9.05;;;2.75;;
39656;SDS011;25337;51.478;7.510;2022-09-09T01:51:43;9.30;;;2.78;;
39656;SDS011;25337;51.478;7.510;2022-09-09T01:54:14;13.45;;;3.00;;
39656;SDS011;25337;51.478;7.510;2022-09-09T01:56:47;11.57;;;2.60;;
39656;SDS011;25337;51.478;7.510;2022-09-09T02:02:47;7.28;;;2.30;;
39656;SDS011;25337;51.478;7.510;2022-09-09T02:08:03;6.75;;;2.10;;
39656;SDS011;25337;51.478;7.510;2022-09-09T02:10:42;6.28;;;2.28;;
39656;SDS011;25337;51.478;7.510;2022-09-09T02:13:14;7.80;;;2.45;;
39656;SDS011;25337;51.478;7.510;2022-09-09T02:15:47;9.05;;;2.63;;
39656;SDS011;25337;51.478;7.510;2022-09-09T02:18:32;12.02;;;2.35;;
39656;SDS011;25337;51.478;7.510;2022-09-09T02:21:10;9.20;;;2.92;;
39656;SDS011;25337;51.478;7.510;2022-09-09T02:23:37;10.10;;;2.53;;
39656;SDS011;25337;51.478;7.510;2022-09-09T02:26:06;8.07;;;2.42;;
39656;SDS011;25337;51.478;7.510;2022-09-09T02:28:33;10.55;;;2.83;;
39656;SDS011;25337;51.478;7.510;2022-09-09T02:31:01;6.90;;;2.17;;
39656;SDS011;25337;51.478;7.510;2022-09-09T02:33:28;6.88;;;2.58;;
39656;SDS011;25337;51.478;7.510;2022-09-09T02:35:59;8.73;;;2.50;;
39656;SDS011;25337;51.478;7.510;2022-09-09T02:38:28;5.70;;;1.88;;
39656;SDS011;25337;51.478;7.510;2022-09-09T02:41:00;10.15;;;2.53;;
39656;SDS011;25337;51.478;7.510;2022-09-09T02:43:30;11.68;;;2.30;;
39656;SDS011;25337;51.478;7.510;2022-09-09T02:48:36;9.00;;;1.85;;
39656;SDS011;25337;51.478;7.510;2022-09-09T02:51:38;8.07;;;2.03;;
39656;SDS011;25337;51.478;7.510;2022-09-09T02:54:27;10.73;;;2.30;;
39656;SDS011;25337;51.478;7.510;2022-09-09T02:57:01;7.32;;;2.35;;
39656;SDS011;25337;51.478;7.510;2022-09-09T02:59:30;7.57;;;2.00;;
39656;SDS011;25337;51.478;7.510;2022-09-09T03:01:56;9.00;;;2.47;;
39656;SDS011;25337;51.478;7.510;2022-09-09T03:04:22;9.43;;;2.38;;
39656;SDS011;25337;51.478;7.510;2022-09-09T03:06:49;6.40;;;2.20;;
39656;SDS011;25337;51.478;7.510;2022-09-09T03:09:14;7.22;;;2.15;;
39656;SDS011;25337;51.478;7.510;2022-09-09T03:11:40;8.63;;;2.00;;
39656;SDS011;25337;51.478;7.510;2022-09-09T03:14:06;10.48;;;2.67;;
39656;SDS011;25337;51.478;7.510;2022-09-09T03:16:32;6.55;;;2.30;;
39656;SDS011;25337;51.478;7.510;2022-09-09T03:18:59;9.30;;;2.30;;
39656;SDS011;25337;51.478;7.510;2022-09-09T03:21:25;5.90;;;1.90;;
39656;SDS011;25337;51.478;7.510;2022-09-09T03:23:51;5.50;;;1.80;;
39656;SDS011;25337;51.478;7.510;2022-09-09T03:26:16;7.55;;;2.30;;
39656;SDS011;25337;51.478;7.510;2022-09-09T03:28:42;6.65;;;2.05;;
39656;SDS011;25337;51.478;7.510;2022-09-09T03:31:09;7.15;;;2.00;;
39656;SDS011;25337;51.478;7.510;2022-09-09T03:33:38;8.90;;;2.10;;
39656;SDS011;25337;51.478;7.510;2022-09-09T03:36:06;6.38;;;2.17;;
39656;SDS011;25337;51.478;7.510;2022-09-09T03:38:33;6.03;;;1.83;;
39656;SDS011;25337;51.478;7.510;2022-09-09T03:40:59;9.75;;;2.42;;
39656;SDS011;25337;51.478;7.510;2022-09-09T03:43:26;7.68;;;2.00;;
39656;SDS011;25337;51.478;7.510;2022-09-09T03:45:53;7.72;;;2.08;;
39656;SDS011;25337;51.478;7.510;2022-09-09T03:48:23;8.02;;;2.13;;
39656;SDS011;25337;51.478;7.510;2022-09-09T03:50:51;7.15;;;2.13;;
39656;SDS011;25337;51.478;7.510;2022-09-09T03:53:18;8.50;;;2.28;;
39656;SDS011;25337;51.478;7.510;2022-09-09T03:55:46;10.30;;;2.00;;
39656;SDS011;25337;51.478;7.510;2022-09-09T03:58:13;7.20;;;2.13;;
39656;SDS011;25337;51.478;7.510;2022-09-09T04:00:40;9.27;;;2.38;;
39656;SDS011;25337;51.478;7.510;2022-09-09T04:03:08;7.68;;;2.33;;
39656;SDS011;25337;51.478;7.510;2022-09-09T04:05:34;7.90;;;2.20;;
39656;SDS011;25337;51.478;7.510;2022-09-09T04:08:04;9.52;;;2.92;;
39656;SDS011;25337;51.478;7.510;2022-09-09T04:10:33;8.73;;;2.50;;
39656;SDS011;25337;51.478;7.510;2022-09-09T04:13:01;7.82;;;2.60;;
39656;SDS011;25337;51.478;7.510;2022-09-09T04:15:27;7.32;;;2.13;;
39656;SDS011;25337;51.478;7.510;2022-09-09T04:17:53;7.78;;;2.30;;
39656;SDS011;25337;51.478;7.510;2022-09-09T04:20:19;7.65;;;2.55;;
39656;SDS011;25337;51.478;7.510;2022-09-09T04:22:45;9.93;;;2.30;;
39656;SDS011;25337;51.478;7.510;2022-09-09T04:25:10;10.20;;;2.28;;
39656;SDS011;25337;51.478;7.510;2022-09-09T04:27:36;9.75;;;2.40;;
39656;SDS011;25337;51.478;7.510;2022-09-09T04:30:02;9.48;;;2.95;;
39656;SDS011;25337;51.478;7.510;2022-09-09T04:32:28;9.40;;;2.35;;
39656;SDS011;25337;51.478;7.510;2022-09-09T04:34:53;9.60;;;2.30;;
39656;SDS011;25337;51.478;7.510;2022-09-09T04:37:19;7.13;;;2.00;;
39656;SDS011;25337;51.478;7.510;2022-09-09T04:39:44;10.00;;;2.47;;
39656;SDS011;25337;51.478;7.510;2022-09-09T04:42:10;11.88;;;2.60;;
39656;SDS011;25337;51.478;7.510;2022-09-09T04:44:36;10.10;;;2.63;;
39656;SDS011;25337;51.478;7.510;2022-09-09T04:47:02;9.38;;;2.38;;
39656;SDS011;25337;51.478;7.510;2022-09-09T04:49:27;8.98;;;2.60;;
39656;SDS011;25337;51.478;7.510;2022-09-09T04:51:53;9.57;;;2.50;;
39656;SDS011;25337;51.478;7.510;2022-09-09T04:54:19;7.28;;;2.17;;
39656;SDS011;25337;51.478;7.510;2022-09-09T04:56:44;6.93;;;2.30;;
39656;SDS011;25337;51.478;7.510;2022-09-09T04:59:10;8.43;;;2.38;;
39656;SDS011;25337;51.478;7.510;2022-09-09T05:01:35;7.75;;;2.42;;
39656;SDS011;25337;51.478;7.510;2022-09-09T05:04:01;8.20;;;2.38;;
39656;SDS011;25337;51.478;7.510;2022-09-09T05:06:27;8.98;;;2.28;;
39656;SDS011;25337;51.478;7.510;2022-09-09T05:08:56;9.73;;;2.70;;
39656;SDS011;25337;51.478;7.510;2022-09-09T05:11:24;6.97;;;2.25;;
39656;SDS011;25337;51.478;7.510;2022-09-09T05:13:52;7.78;;;2.15;;
39656;SDS011;25337;51.478;7.510;2022-09-09T05:16:19;10.18;;;2.50;;
39656;SDS011;25337;51.478;7.510;2022-09-09T05:18:46;7.57;;;2.40;;
39656;SDS011;25337;51.478;7.510;2022-09-09T05:21:13;10.98;;;2.67;;
39656;SDS011;25337;51.478;7.510;2022-09-09T05:23:39;10.00;;;2.13;;
39656;SDS011;25337;51.478;7.510;2022-09-09T05:26:06;8.68;;;2.22;;
39656;SDS011;25337;51.478;7.510;2022-09-09T05:28:34;6.32;;;2.15;;
39656;SDS011;25337;51.478;7.510;2022-09-09T05:31:02;11.48;;;2.67;;
39656;SDS011;25337;51.478;7.510;2022-09-09T05:33:30;7.82;;;2.20;;
39656;SDS011;25337;51.478;7.510;2022-09-09T05:36:00;7.93;;;2.40;;
39656;SDS011;25337;51.478;7.510;2022-09-09T05:38:31;7.57;;;2.40;;
39656;SDS011;25337;51.478;7.510;2022-09-09T05:40:57;6.72;;;2.20;;
39656;SDS011;25337;51.478;7.510;2022-09-09T05:43:24;8.32;;;2.80;;
39656;SDS011;25337;51.478;7.510;2022-09-09T05:46:06;11.75;;;2.45;;
39656;SDS011;25337;51.478;7.510;2022-09-09T05:48:37;12.27;;;2.38;;
39656;SDS011;25337;51.478;7.510;2022-09-09T05:51:05;8.63;;;2.28;;
39656;SDS011;25337;51.478;7.510;2022-09-09T05:53:32;11.15;;;2.42;;
39656;SDS011;25337;51.478;7.510;2022-09-09T05:55:59;7.28;;;2.20;;
39656;SDS011;25337;51.478;7.510;2022-09-09T05:58:33;9.95;;;2.33;;
39656;SDS011;25337;51.478;7.510;2022-09-09T06:01:04;7.55;;;2.20;;
39656;SDS011;25337;51.478;7.510;2022-09-09T06:03:32;8.02;;;2.08;;
39656;SDS011;25337;51.478;7.510;2022-09-09T06:06:00;7.93;;;2.10;;
39656;SDS011;25337;51.478;7.510;2022-09-09T06:08:27;7.60;;;2.15;;
39656;SDS011;25337;51.478;7.510;2022-09-09T06:10:53;7.97;;;2.08;;
39656;SDS011;25337;51.478;7.510;2022-09-09T06:13:18;5.80;;;1.98;;
39656;SDS011;25337;51.478;7.510;2022-09-09T06:15:51;9.52;;;2.10;;
39656;SDS011;25337;51.478;7.510;2022-09-09T06:18:17;7.65;;;1.92;;
39656;SDS011;25337;51.478;7.510;2022-09-09T06:20:53;6.55;;;1.90;;
39656;SDS011;25337;51.478;7.510;2022-09-09T06:23:26;7.10;;;1.90;;
39656;SDS011;25337;51.478;7.510;2022-09-09T06:26:00;5.65;;;2.03;;
39656;SDS011;25337;51.478;7.510;2022-09-09T06:28:26;8.30;;;2.20;;
39656;SDS011;25337;51.478;7.510;2022-09-09T06:31:00;8.57;;;2.00;;
39656;SDS011;25337;51.478;7.510;2022-09-09T06:33:32;12.32;;;2.00;;
39656;SDS011;25337;51.478;7.510;2022-09-09T06:36:06;7.68;;;2.22;;
39656;SDS011;25337;51.478;7.510;2022-09-09T06:38:35;9.60;;;2.38;;
39656;SDS011;25337;51.478;7.510;2022-09-09T06:41:00;11.75;;;2.00;;
39656;SDS011;25337;51.478;7.510;2022-09-09T06:43:26;6.35;;;1.92;;
39656;SDS011;25337;51.478;7.510;2022-09-09T06:46:00;8.45;;;2.20;;
39656;SDS011;25337;51.478;7.510;2022-09-09T06:48:27;8.55;;;2.10;;
39656;SDS011;25337;51.478;7.510;2022-09-09T06:51:03;8.45;;;2.00;;
39656;SDS011;25337;51.478;7.510;2022-09-09T06:53:53;10.35;;;1.90;;
39656;SDS011;25337;51.478;7.510;2022-09-09T06:58:54;8.18;;;1.92;;
39656;SDS011;25337;51.478;7.510;2022-09-09T07:01:22;7.22;;;1.90;;
39656;SDS011;25337;51.478;7.510;2022-09-09T07:03:53;7.47;;;1.98;;
39656;SDS011;25337;51.478;7.510;2022-09-09T07:06:29;6.88;;;2.17;;
39656;SDS011;25337;51.478;7.510;2022-09-09T07:08:57;5.82;;;1.92;;
39656;SDS011;25337;51.478;7.510;2022-09-09T07:11:29;6.13;;;1.80;;
39656;SDS011;25337;51.478;7.510;2022-09-09T07:13:57;6.00;;;1.77;;
39656;SDS011;25337;51.478;7.510;2022-09-09T07:16:24;7.80;;;2.10;;
39656;SDS011;25337;51.478;7.510;2022-09-09T07:18:50;10.57;;;2.22;;
39656;SDS011;25337;51.478;7.510;2022-09-09T07:21:17;6.35;;;1.70;;
39656;SDS011;25337;51.478;7.510;2022-09-09T07:23:44;9.10;;;1.73;;
39656;SDS011;25337;51.478;7.510;2022-09-09T07:26:16;4.80;;;1.80;;
39656;SDS011;25337;51.478;7.510;2022-09-09T07:28:46;7.85;;;1.60;;
39656;SDS011;25337;51.478;7.510;2022-09-09T07:31:13;6.70;;;2.10;;
39656;SDS011;25337;51.478;7.510;2022-09-09T07:34:01;6.13;;;1.60;;
39656;SDS011;25337;51.478;7.510;2022-09-09T07:36:31;8.40;;;2.08;;
39656;SDS011;25337;51.478;7.510;2022-09-09T07:38:59;6.53;;;1.58;;
39656;SDS011;25337;51.478;7.510;2022-09-09T07:41:31;4.45;;;1.40;;
39656;SDS011;25337;51.478;7.510;2022-09-09T07:43:59;5.95;;;1.70;;
39656;SDS011;25337;51.478;7.510;2022-09-09T07:46:28;8.00;;;2.20;;
39656;SDS011;25337;51.478;7.510;2022-09-09T07:48:54;6.63;;;1.73;;
39656;SDS011;25337;51.478;7.510;2022-09-09T07:51:25;7.53;;;1.75;;
39656;SDS011;25337;51.478;7.510;2022-09-09T07:54:04;6.95;;;1.50;;
39656;SDS011;25337;51.478;7.510;2022-09-09T07:56:31;6.97;;;1.60;;
39656;SDS011;25337;51.478;7.510;2022-09-09T07:58:57;5.40;;;1.85;;
39656;SDS011;25337;51.478;7.510;2022-09-09T08:01:36;7.18;;;1.63;;
39656;SDS011;25337;51.478;7.510;2022-09-09T08:04:07;8.95;;;1.90;;
39656;SDS011;25337;51.478;7.510;2022-09-09T08:06:43;6.30;;;1.60;;
39656;SDS011;25337;51.478;7.510;2022-09-09T08:09:11;8.57;;;2.10;;
39656;SDS011;25337;51.478;7.510;2022-09-09T08:11:37;7.70;;;1.88;;
39656;SDS011;25337;51.478;7.510;2022-09-09T08:14:03;11.13;;;1.77;;
39656;SDS011;25337;51.478;7.510;2022-09-09T08:16:31;7.25;;;2.00;;
39656;SDS011;25337;51.478;7.510;2022-09-09T08:18:59;10.57;;;1.90;;
39656;SDS011;25337;51.478;7.510;2022-09-09T08:21:29;6.97;;;1.83;;
39656;SDS011;25337;51.478;7.510;2022-09-09T08:23:57;11.80;;;1.80;;
39656;SDS011;25337;51.478;7.510;2022-09-09T08:26:26;7.65;;;1.83;;
39656;SDS011;25337;51.478;7.510;2022-09-09T08:28:56;7.05;;;1.30;;
39656;SDS011;25337;51.478;7.510;2022-09-09T08:33:51;5.30;;;1.48;;
39656;SDS011;25337;51.478;7.510;2022-09-09T08:36:18;9.80;;;1.70;;
39656;SDS011;25337;51.478;7.510;2022-09-09T08:38:50;6.32;;;1.58;;
39656;SDS011;25337;51.478;7.510;2022-09-09T08:50:02;6.53;;;1.40;;
39656;SDS011;25337;51.478;7.510;2022-09-09T08:52:37;4.90;;;1.33;;
39656;SDS011;25337;51.478;7.510;2022-09-09T08:55:31;3.28;;;1.13;;
39656;SDS011;25337;51.478;7.510;2022-09-09T09:11:44;7.13;;;1.80;;
39656;SDS011;25337;51.478;7.510;2022-09-09T09:14:25;8.23;;;1.58;;
39656;SDS011;25337;51.478;7.510;2022-09-09T09:16:54;6.95;;;1.23;;
39656;SDS011;25337;51.478;7.510;2022-09-09T09:19:23;10.57;;;2.03;;
39656;SDS011;25337;51.478;7.510;2022-09-09T09:24:20;6.10;;;1.25;;
39656;SDS011;25337;51.478;7.510;2022-09-09T09:26:52;4.75;;;1.25;;
39656;SDS011;25337;51.478;7.510;2022-09-09T09:29:19;5.13;;;1.30;;
39656;SDS011;25337;51.478;7.510;2022-09-09T09:31:53;8.70;;;1.40;;
39656;SDS011;25337;51.478;7.510;2022-09-09T09:34:24;2.67;;;1.17;;
39656;SDS011;25337;51.478;7.510;2022-09-09T09:36:54;8.48;;;2.03;;
39656;SDS011;25337;51.478;7.510;2022-09-09T09:39:23;9.38;;;1.60;;
39656;SDS011;25337;51.478;7.510;2022-09-09T09:41:51;8.40;;;1.95;;
39656;SDS011;25337;51.478;7.510;2022-09-09T09:46:49;4.60;;;1.27;;
39656;SDS011;25337;51.478;7.510;2022-09-09T09:49:15;4.22;;;1.17;;
39656;SDS011;25337;51.478;7.510;2022-09-09T09:51:42;3.53;;;1.20;;
39656;SDS011;25337;51.478;7.510;2022-09-09T09:54:22;7.10;;;1.42;;
39656;SDS011;25337;51.478;7.510;2022-09-09T09:56:53;7.82;;;1.60;;
39656;SDS011;25337;51.478;7.510;2022-09-09T10:01:45;5.47;;;1.20;;
39656;SDS011;25337;51.478;7.510;2022-09-09T10:04:28;10.10;;;2.00;;
39656;SDS011;25337;51.478;7.510;2022-09-09T10:06:54;4.90;;;1.30;;
39656;SDS011;25337;51.478;7.510;2022-09-09T10:09:21;9.05;;;1.40;;
39656;SDS011;25337;51.478;7.510;2022-09-09T10:14:42;5.43;;;1.45;;
39656;SDS011;25337;51.478;7.510;2022-09-09T10:22:51;6.32;;;1.30;;
39656;SDS011;25337;51.478;7.510;2022-09-09T10:35:35;4.78;;;1.10;;
39656;SDS011;25337;51.478;7.510;2022-09-09T10:47:00;6.93;;;1.40;;
39656;SDS011;25337;51.478;7.510;2022-09-09T10:52:45;5.05;;;1.30;;
39656;SDS011;25337;51.478;7.510;2022-09-09T10:55:24;9.55;;;1.30;;
39656;SDS011;25337;51.478;7.510;2022-09-09T10:57:55;4.57;;;1.20;;
39656;SDS011;25337;51.478;7.510;2022-09-09T11:00:27;4.03;;;1.30;;
39656;SDS011;25337;51.478;7.510;2022-09-09T11:03:09;5.68;;;1.27;;
39656;SDS011;25337;51.478;7.510;2022-09-09T11:05:49;3.72;;;1.13;;
39656;SDS011;25337;51.478;7.510;2022-09-09T11:08:19;5.13;;;1.20;;
39656;SDS011;25337;51.478;7.510;2022-09-09T11:13:35;4.50;;;1.02;;
39656;SDS011;25337;51.478;7.510;2022-09-09T11:18:42;6.80;;;1.60;;
39656;SDS011;25337;51.478;7.510;2022-09-09T11:21:14;6.85;;;1.30;;
39656;SDS011;25337;51.478;7.510;2022-09-09T11:23:53;5.18;;;1.20;;
39656;SDS011;25337;51.478;7.510;2022-09-09T11:26:29;4.60;;;1.13;;
39656;SDS011;25337;51.478;7.510;2022-09-09T11:34:38;7.28;;;1.30;;
39656;SDS011;25337;51.478;7.510;2022-09-09T11:39:55;6.97;;;1.20;;
39656;SDS011;25337;51.478;7.510;2022-09-09T11:42:32;3.13;;;0.93;;
39656;SDS011;25337;51.478;7.510;2022-09-09T11:45:08;3.88;;;0.98;;
39656;SDS011;25337;51.478;7.510;2022-09-09T11:47:36;5.25;;;1.02;;
39656;SDS011;25337;51.478;7.510;2022-09-09T11:52:38;4.10;;;1.08;;
39656;SDS011;25337;51.478;7.510;2022-09-09T11:55:27;2.75;;;0.80;;
39656;SDS011;25337;51.478;7.510;2022-09-09T11:57:57;3.70;;;1.10;;
39656;SDS011;25337;51.478;7.510;2022-09-09T12:00:28;8.23;;;1.20;;
39656;SDS011;25337;51.478;7.510;2022-09-09T12:03:02;2.33;;;1.00;;
39656;SDS011;25337;51.478;7.510;2022-09-09T12:08:27;3.95;;;0.98;;
39656;SDS011;25337;51.478;7.510;2022-09-09T12:13:22;3.10;;;0.90;;
39656;SDS011;25337;51.478;7.510;2022-09-09T12:15:50;5.43;;;1.20;;
39656;SDS011;25337;51.478;7.510;2022-09-09T12:18:37;2.55;;;0.90;;
39656;SDS011;25337;51.478;7.510;2022-09-09T12:23:52;4.53;;;0.83;;
39656;SDS011;25337;51.478;7.510;2022-09-09T12:26:30;6.63;;;1.17;;
39656;SDS011;25337;51.478;7.510;2022-09-09T12:34:40;5.70;;;1.10;;
39656;SDS011;25337;51.478;7.510;2022-09-09T12:39:46;6.32;;;1.20;;
39656;SDS011;25337;51.478;7.510;2022-09-09T12:42:17;3.85;;;1.17;;
39656;SDS011;25337;51.478;7.510;2022-09-09T12:44:58;3.05;;;1.10;;
39656;SDS011;25337;51.478;7.510;2022-09-09T12:50:31;6.95;;;1.42;;
39656;SDS011;25337;51.478;7.510;2022-09-09T12:53:01;7.03;;;1.50;;
39656;SDS011;25337;51.478;7.510;2022-09-09T12:55:32;6.22;;;1.55;;
39656;SDS011;25337;51.478;7.510;2022-09-09T12:58:02;3.13;;;1.00;;
39656;SDS011;25337;51.478;7.510;2022-09-09T13:00:31;4.23;;;1.30;;
39656;SDS011;25337;51.478;7.510;2022-09-09T13:02:59;3.58;;;1.08;;
39656;SDS011;25337;51.478;7.510;2022-09-09T13:05:27;3.22;;;1.30;;
39656;SDS011;25337;51.478;7.510;2022-09-09T13:10:30;5.90;;;1.17;;
39656;SDS011;25337;51.478;7.510;2022-09-09T13:13:03;3.85;;;1.10;;
39656;SDS011;25337;51.478;7.510;2022-09-09T13:15:36;6.50;;;1.10;;
39656;SDS011;25337;51.478;7.510;2022-09-09T13:18:03;4.35;;;1.17;;
39656;SDS011;25337;51.478;7.510;2022-09-09T13:20:36;5.05;;;1.30;;
39656;SDS011;25337;51.478;7.510;2022-09-09T13:23:02;4.72;;;1.40;;
39656;SDS011;25337;51.478;7.510;2022-09-09T13:25:28;3.90;;;1.23;;
39656;SDS011;25337;51.478;7.510;2022-09-09T13:27:55;6.43;;;1.58;;
39656;SDS011;25337;51.478;7.510;2022-09-09T13:30:34;6.60;;;1.30;;
39656;SDS011;25337;51.478;7.510;2022-09-09T13:35:55;7.45;;;1.52;;
39656;SDS011;25337;51.478;7.510;2022-09-09T13:38:24;5.75;;;1.50;;
39656;SDS011;25337;51.478;7.510;2022-09-09T13:40:57;4.25;;;1.20;;
39656;SDS011;25337;51.478;7.510;2022-09-09T13:43:27;5.47;;;1.20;;
39656;SDS011;25337;51.478;7.510;2022-09-09T13:45:58;5.47;;;1.20;;
39656;SDS011;25337;51.478;7.510;2022-09-09T13:48:26;6.15;;;1.30;;
39656;SDS011;25337;51.478;7.510;2022-09-09T13:50:56;4.07;;;1.25;;
39656;SDS011;25337;51.478;7.510;2022-09-09T13:53:26;8.68;;;1.23;;
39656;SDS011;25337;51.478;7.510;2022-09-09T13:55:52;6.90;;;1.20;;
39656;SDS011;25337;51.478;7.510;2022-09-09T13:58:18;6.47;;;1.00;;
39656;SDS011;25337;51.478;7.510;2022-09-09T14:00:44;4.07;;;1.00;;
39656;SDS011;25337;51.478;7.510;2022-09-09T14:03:10;8.68;;;1.30;;
39656;SDS011;25337;51.478;7.510;2022-09-09T14:05:36;8.50;;;1.13;;
39656;SDS011;25337;51.478;7.510;2022-09-09T14:08:06;4.40;;;1.15;;
39656;SDS011;25337;51.478;7.510;2022-09-09T14:13:00;3.45;;;1.38;;
39656;SDS011;25337;51.478;7.510;2022-09-09T14:15:26;7.47;;;1.63;;
39656;SDS011;25337;51.478;7.510;2022-09-09T14:17:52;7.05;;;1.60;;
39656;SDS011;25337;51.478;7.510;2022-09-09T14:20:17;3.88;;;1.48;;
39656;SDS011;25337;51.478;7.510;2022-09-09T14:22:44;7.03;;;1.80;;
39656;SDS011;25337;51.478;7.510;2022-09-09T14:25:10;8.48;;;1.73;;
39656;SDS011;25337;51.478;7.510;2022-09-09T14:27:38;4.88;;;1.40;;
39656;SDS011;25337;51.478;7.510;2022-09-09T14:30:04;7.75;;;1.80;;
39656;SDS011;25337;51.478;7.510;2022-09-09T14:32:31;7.15;;;1.58;;
39656;SDS011;25337;51.478;7.510;2022-09-09T14:34:57;6.85;;;1.55;;
39656;SDS011;25337;51.478;7.510;2022-09-09T14:37:23;6.85;;;1.88;;
39656;SDS011;25337;51.478;7.510;2022-09-09T14:39:49;8.25;;;1.52;;
39656;SDS011;25337;51.478;7.510;2022-09-09T14:42:15;4.15;;;1.40;;
39656;SDS011;25337;51.478;7.510;2022-09-09T14:44:41;8.18;;;1.58;;
39656;SDS011;25337;51.478;7.510;2022-09-09T14:47:07;6.20;;;1.42;;
39656;SDS011;25337;51.478;7.510;2022-09-09T14:49:33;6.03;;;1.50;;
39656;SDS011;25337;51.478;7.510;2022-09-09T14:52:00;5.15;;;1.60;;
39656;SDS011;25337;51.478;7.510;2022-09-09T14:54:26;5.97;;;2.00;;
39656;SDS011;25337;51.478;7.510;2022-09-09T14:56:53;10.70;;;4.13;;
39656;SDS011;25337;51.478;7.510;2022-09-09T14:59:19;8.48;;;3.30;;
39656;SDS011;25337;51.478;7.510;2022-09-09T15:01:45;8.20;;;2.13;;
39656;SDS011;25337;51.478;7.510;2022-09-09T15:04:11;4.50;;;1.38;;
39656;SDS011;25337;51.478;7.510;2022-09-09T15:06:39;6.97;;;1.90;;
39656;SDS011;25337;51.478;7.510;2022-09-09T15:09:07;6.25;;;1.92;;
39656;SDS011;25337;51.478;7.510;2022-09-09T15:11:34;7.47;;;1.52;;
39656;SDS011;25337;51.478;7.510;2022-09-09T15:14:04;5.93;;;1.40;;
39656;SDS011;25337;51.478;7.510;2022-09-09T15:16:31;4.80;;;1.58;;
39656;SDS011;25337;51.478;7.510;2022-09-09T15:18:57;4.75;;;1.30;;
39656;SDS011;25337;51.478;7.510;2022-09-09T15:21:25;6.38;;;1.23;;
39656;SDS011;25337;51.478;7.510;2022-09-09T15:23:52;11.00;;;1.60;;
39656;SDS011;25337;51.478;7.510;2022-09-09T15:26:18;6.50;;;1.55;;
39656;SDS011;25337;51.478;7.510;2022-09-09T15:28:45;5.15;;;1.30;;
39656;SDS011;25337;51.478;7.510;2022-09-09T15:31:16;4.40;;;1.40;;
39656;SDS011;25337;51.478;7.510;2022-09-09T15:33:48;4.07;;;1.20;;
39656;SDS011;25337;51.478;7.510;2022-09-09T15:36:22;6.15;;;1.40;;
39656;SDS011;25337;51.478;7.510;2022-09-09T15:38:49;3.85;;;1.33;;
39656;SDS011;25337;51.478;7.510;2022-09-09T15:41:17;7.00;;;1.90;;
39656;SDS011;25337;51.478;7.510;2022-09-09T15:43:44;12.90;;;2.40;;
39656;SDS011;25337;51.478;7.510;2022-09-09T15:48:42;5.63;;;1.70;;
39656;SDS011;25337;51.478;7.510;2022-09-09T15:51:11;8.43;;;1.77;;
39656;SDS011;25337;51.478;7.510;2022-09-09T15:53:37;8.63;;;1.52;;
39656;SDS011;25337;51.478;7.510;2022-09-09T15:56:06;6.05;;;1.60;;
39656;SDS011;25337;51.478;7.510;2022-09-09T15:58:32;4.93;;;1.25;;
39656;SDS011;25337;51.478;7.510;2022-09-09T16:01:08;4.43;;;1.30;;
39656;SDS011;25337;51.478;7.510;2022-09-09T16:03:35;6.80;;;1.45;;
39656;SDS011;25337;51.478;7.510;2022-09-09T16:06:01;5.65;;;1.55;;
39656;SDS011;25337;51.478;7.510;2022-09-09T16:08:46;4.78;;;1.40;;
39656;SDS011;25337;51.478;7.510;2022-09-09T16:11:36;5.50;;;1.55;;
39656;SDS011;25337;51.478;7.510;2022-09-09T16:14:02;5.88;;;1.88;;
39656;SDS011;25337;51.478;7.510;2022-09-09T16:16:28;5.38;;;1.60;;
39656;SDS011;25337;51.478;7.510;2022-09-09T16:18:58;5.82;;;2.00;;
39656;SDS011;25337;51.478;7.510;2022-09-09T16:21:27;6.15;;;2.00;;
39656;SDS011;25337;51.478;7.510;2022-09-09T16:23:54;4.85;;;1.70;;
39656;SDS011;25337;51.478;7.510;2022-09-09T16:26:21;5.72;;;1.70;;
39656;SDS011;25337;51.478;7.510;2022-09-09T16:28:48;7.30;;;1.80;;
39656;SDS011;25337;51.478;7.510;2022-09-09T16:31:15;4.85;;;1.60;;
39656;SDS011;25337;51.478;7.510;2022-09-09T16:33:45;4.15;;;1.50;;
39656;SDS011;25337;51.478;7.510;2022-09-09T16:36:13;4.55;;;1.58;;
39656;SDS011;25337;51.478;7.510;2022-09-09T16:38:41;4.05;;;1.50;;
39656;SDS011;25337;51.478;7.510;2022-09-09T16:41:08;6.30;;;1.60;;
39656;SDS011;25337;51.478;7.510;2022-09-09T16:43:34;5.10;;;1.50;;
39656;SDS011;25337;51.478;7.510;2022-09-09T16:46:18;4.32;;;1.40;;
39656;SDS011;25337;51.478;7.510;2022-09-09T16:48:44;4.57;;;1.38;;
39656;SDS011;25337;51.478;7.510;2022-09-09T16:51:18;5.05;;;1.40;;
39656;SDS011;25337;51.478;7.510;2022-09-09T16:53:48;6.45;;;1.42;;
39656;SDS011;25337;51.478;7.510;2022-09-09T16:56:15;4.60;;;1.35;;
39656;SDS011;25337;51.478;7.510;2022-09-09T16:58:44;3.35;;;1.30;;
39656;SDS011;25337;51.478;7.510;2022-09-09T17:01:21;5.22;;;1.58;;
39656;SDS011;25337;51.478;7.510;2022-09-09T17:06:17;8.35;;;1.67;;
39656;SDS011;25337;51.478;7.510;2022-09-09T17:08:44;5.85;;;1.77;;
39656;SDS011;25337;51.478;7.510;2022-09-09T17:11:13;7.28;;;2.05;;
39656;SDS011;25337;51.478;7.510;2022-09-09T17:13:41;5.93;;;1.92;;
39656;SDS011;25337;51.478;7.510;2022-09-09T17:16:07;5.93;;;2.00;;
39656;SDS011;25337;51.478;7.510;2022-09-09T17:18:34;7.65;;;2.15;;
39656;SDS011;25337;51.478;7.510;2022-09-09T17:21:03;7.30;;;1.85;;
39656;SDS011;25337;51.478;7.510;2022-09-09T17:23:31;9.45;;;3.03;;
39656;SDS011;25337;51.478;7.510;2022-09-09T17:25:58;8.77;;;2.47;;
39656;SDS011;25337;51.478;7.510;2022-09-09T17:28:25;10.02;;;2.38;;
39656;SDS011;25337;51.478;7.510;2022-09-09T17:30:56;7.10;;;2.58;;
39656;SDS011;25337;51.478;7.510;2022-09-09T17:33:25;7.18;;;2.53;;
39656;SDS011;25337;51.478;7.510;2022-09-09T17:35:52;10.50;;;3.10;;
39656;SDS011;25337;51.478;7.510;2022-09-09T17:38:18;6.63;;;2.70;;
39656;SDS011;25337;51.478;7.510;2022-09-09T17:40:44;10.75;;;2.70;;
39656;SDS011;25337;51.478;7.510;2022-09-09T17:43:09;6.50;;;2.35;;